Time;durP1;ratioP1;P1;durP2;ratioP2;P2;SDS_P1;SDS_P2;PMS_P1;PMS_P2;Temp;Humidity;BMP_temperature;BMP_pressure;BME280_temperature;BME280_humidity;BME280_pressure;Samples;Min_cycle;Max_cycle;Signal;HPM_P1;HPM_P2
2022/10/22 00:02:41;;;;;;;17.90;16.17;;;13.60;99.90;;;;;;6319169;28;20459;-65
2022/10/22 00:05:44;;;;;;;19.50;17.43;;;13.70;99.90;;;;;;6321416;28;20444;-65
2022/10/22 00:08:47;;;;;;;20.53;18.70;;;13.70;99.90;;;;;;6343169;28;20487;-65
2022/10/22 00:11:51;;;;;;;20.90;18.80;;;13.70;99.90;;;;;;6323056;28;20444;-65
2022/10/22 00:14:55;;;;;;;20.30;18.47;;;13.70;99.90;;;;;;6342643;28;20461;-64
2022/10/22 00:17:58;;;;;;;19.57;17.67;;;13.70;99.90;;;;;;6318436;28;20479;-65
2022/10/22 00:21:02;;;;;;;21.87;19.20;;;13.70;99.90;;;;;;6320328;28;20472;-65
2022/10/22 00:24:05;;;;;;;22.07;18.27;;;13.70;99.90;;;;;;6320445;28;20465;-65
2022/10/22 00:27:10;;;;;;;19.57;17.73;;;13.70;99.90;;;;;;6319786;28;20468;-65
2022/10/22 00:30:15;;;;;;;19.73;17.70;;;13.70;99.90;;;;;;6319834;28;20476;-65
2022/10/22 00:33:18;;;;;;;21.10;18.17;;;13.70;99.90;;;;;;6319091;28;20546;-66
2022/10/22 00:36:22;;;;;;;21.30;17.57;;;13.70;99.90;;;;;;6320234;28;20526;-66
2022/10/22 00:39:27;;;;;;;18.93;17.00;;;13.70;99.90;;;;;;6308738;28;20472;-66
2022/10/22 00:42:30;;;;;;;21.30;16.37;;;13.70;99.90;;;;;;6302437;28;20614;-66
2022/10/22 00:45:34;;;;;;;18.57;16.57;;;13.70;99.90;;;;;;6302738;28;20461;-66
2022/10/22 00:48:37;;;;;;;19.27;17.33;;;13.70;99.90;;;;;;6302775;28;20473;-62
2022/10/22 00:51:40;;;;;;;19.00;17.10;;;13.70;99.90;;;;;;6301579;28;20468;-64
2022/10/22 00:54:44;;;;;;;19.40;17.40;;;13.70;99.90;;;;;;6300999;28;20487;-62
2022/10/22 00:57:48;;;;;;;20.20;18.03;;;13.70;99.90;;;;;;6312424;28;20468;-63
2022/10/22 01:00:52;;;;;;;21.43;18.50;;;13.70;99.90;;;;;;6317367;28;20537;-63
2022/10/22 01:03:56;;;;;;;20.30;18.33;;;13.70;99.90;;;;;;6302518;28;20476;-64
2022/10/22 01:06:59;;;;;;;19.30;15.83;;;13.60;99.90;;;;;;6302252;28;20473;-63
2022/10/22 01:10:08;;;;;;;17.67;15.87;;;13.60;99.90;;;;;;6302495;28;20501;-63
2022/10/22 01:13:26;;;;;;;19.37;17.00;;;13.60;99.90;;;;;;6302375;28;20481;-64
2022/10/22 01:16:38;;;;;;;19.33;17.40;;;13.60;99.90;;;;;;6302175;28;20546;-64
2022/10/22 01:19:59;;;;;;;18.63;16.63;;;13.50;99.90;;;;;;6301992;28;21129;-63
2022/10/22 01:23:17;;;;;;;19.87;17.40;;;13.50;99.90;;;;;;6301841;28;20528;-65
2022/10/22 01:26:27;;;;;;;18.73;16.83;;;13.40;99.90;;;;;;6301791;28;21023;-66
2022/10/22 01:29:37;;;;;;;19.83;17.77;;;13.40;99.90;;;;;;6301904;28;20909;-66
2022/10/22 01:32:44;;;;;;;19.67;17.47;;;13.40;99.90;;;;;;6327592;28;20515;-65
2022/10/22 01:35:48;;;;;;;19.20;16.70;;;13.30;99.90;;;;;;6312050;28;20441;-66
2022/10/22 01:38:52;;;;;;;18.73;16.87;;;13.30;99.90;;;;;;6302045;28;20461;-66
2022/10/22 01:41:56;;;;;;;18.37;16.53;;;13.30;99.90;;;;;;6301829;28;20527;-67
2022/10/22 01:45:00;;;;;;;18.27;16.40;;;13.10;99.90;;;;;;6301841;28;20477;-66
2022/10/22 01:48:16;;;;;;;18.77;16.97;;;13.10;99.90;;;;;;6302027;28;20477;-65
2022/10/22 01:51:29;;;;;;;19.27;16.40;;;13.10;99.90;;;;;;6300895;28;20473;-65
2022/10/22 01:54:39;;;;;;;17.83;16.00;;;13.10;99.90;;;;;;6301446;28;20497;-65
2022/10/22 01:57:49;;;;;;;18.00;14.73;;;13.10;99.90;;;;;;6301441;28;20481;-64
2022/10/22 02:00:59;;;;;;;20.03;16.00;;;13.00;99.90;;;;;;6301169;28;20466;-65
2022/10/22 02:04:09;;;;;;;19.10;16.90;;;13.00;99.90;;;;;;6301078;28;20478;-65
2022/10/22 02:07:15;;;;;;;20.20;17.43;;;13.00;99.90;;;;;;6300918;28;20535;-65
2022/10/22 02:10:19;;;;;;;17.60;15.93;;;12.90;99.90;;;;;;6300543;28;20803;-65
2022/10/22 02:13:27;;;;;;;17.70;15.80;;;12.90;99.90;;;;;;6300886;28;20857;-65
2022/10/22 02:16:36;;;;;;;18.83;15.80;;;12.80;99.90;;;;;;6300833;28;20538;-65
2022/10/22 02:19:44;;;;;;;18.37;16.60;;;12.70;99.90;;;;;;6300508;28;20473;-66
2022/10/22 02:22:47;;;;;;;17.30;15.40;;;12.70;99.90;;;;;;6300604;28;20469;-66
2022/10/22 02:25:57;;;;;;;18.80;16.20;;;12.70;99.90;;;;;;6300471;28;20472;-66
2022/10/22 02:29:06;;;;;;;22.90;17.40;;;12.70;99.90;;;;;;6300205;28;20508;-66
2022/10/22 02:32:16;;;;;;;20.43;16.13;;;12.70;99.90;;;;;;6300892;28;20482;-66
2022/10/22 02:35:23;;;;;;;16.57;14.47;;;12.70;99.90;;;;;;6300242;28;20531;-65
2022/10/22 02:38:28;;;;;;;17.33;15.73;;;12.70;99.90;;;;;;6300287;28;20945;-65
2022/10/22 02:41:31;;;;;;;22.90;18.80;;;12.70;99.90;;;;;;6300023;28;20481;-65
2022/10/22 02:44:34;;;;;;;20.30;16.60;;;12.70;99.90;;;;;;6300129;28;21025;-65
2022/10/22 02:47:39;;;;;;;18.23;16.50;;;12.70;99.90;;;;;;6299406;28;20457;-64
2022/10/22 02:50:42;;;;;;;18.93;16.37;;;12.70;99.90;;;;;;6299450;28;20910;-65
2022/10/22 02:53:45;;;;;;;18.70;16.83;;;12.70;99.90;;;;;;6299162;28;20446;-65
2022/10/22 02:56:48;;;;;;;19.90;18.00;;;12.80;99.90;;;;;;6299416;28;20449;-65
2022/10/22 02:59:52;;;;;;;18.60;16.63;;;12.80;99.90;;;;;;6299977;28;20461;-65
2022/10/22 03:02:56;;;;;;;17.63;15.90;;;12.70;99.90;;;;;;6300785;28;20457;-65
2022/10/22 03:05:59;;;;;;;18.50;16.67;;;12.70;99.90;;;;;;6300984;28;20479;-65
2022/10/22 03:09:02;;;;;;;19.60;17.57;;;12.70;99.90;;;;;;6302267;28;20472;-65
2022/10/22 03:12:07;;;;;;;16.50;14.80;;;12.70;99.90;;;;;;6303951;28;20968;-65
2022/10/22 03:15:10;;;;;;;21.83;17.40;;;12.60;99.90;;;;;;6303417;28;20465;-65
2022/10/22 03:18:15;;;;;;;17.53;15.63;;;12.60;99.90;;;;;;6301913;28;20473;-65
2022/10/22 03:21:26;;;;;;;17.90;16.20;;;12.60;99.90;;;;;;6300376;28;20850;-65
2022/10/22 03:24:34;;;;;;;17.63;15.93;;;12.60;99.90;;;;;;6300662;28;20465;-65
2022/10/22 03:27:38;;;;;;;17.83;16.03;;;12.50;99.90;;;;;;6299149;28;20470;-65
2022/10/22 03:30:42;;;;;;;20.43;17.10;;;12.50;99.90;;;;;;6299625;28;20484;-66
2022/10/22 03:33:46;;;;;;;18.30;16.40;;;12.50;99.90;;;;;;6299342;28;20472;-66
2022/10/22 03:36:51;;;;;;;18.70;16.87;;;12.50;99.90;;;;;;6299650;28;20499;-65
2022/10/22 03:39:54;;;;;;;20.73;16.50;;;12.50;99.90;;;;;;6299935;28;20469;-65
2022/10/22 03:42:58;;;;;;;24.80;17.50;;;12.50;99.90;;;;;;6323799;28;20465;-65
2022/10/22 03:46:02;;;;;;;17.77;16.00;;;12.40;99.90;;;;;;6308661;28;21042;-65
2022/10/22 03:49:06;;;;;;;18.80;16.80;;;12.40;99.90;;;;;;6299046;28;20589;-65
2022/10/22 03:52:11;;;;;;;17.63;15.93;;;12.40;99.90;;;;;;6299028;28;20481;-65
2022/10/22 03:55:14;;;;;;;21.47;17.20;;;12.30;99.90;;;;;;6298982;28;20472;-66
2022/10/22 03:58:17;;;;;;;15.83;14.23;;;12.40;99.90;;;;;;6299274;28;20477;-65
2022/10/22 04:01:20;;;;;;;18.50;16.60;;;12.40;99.90;;;;;;6299425;28;20789;-65
2022/10/22 04:04:25;;;;;;;17.07;15.57;;;12.20;99.90;;;;;;6298621;28;20623;-65
2022/10/22 04:07:28;;;;;;;28.13;18.23;;;12.20;99.90;;;;;;6298311;28;20488;-65
2022/10/22 04:10:31;;;;;;;18.10;16.30;;;12.20;99.90;;;;;;6298984;28;20469;-66
2022/10/22 04:13:35;;;;;;;16.83;14.00;;;12.20;99.90;;;;;;6299825;28;20566;-66
2022/10/22 04:16:39;;;;;;;18.90;16.20;;;12.20;99.90;;;;;;6303138;28;20483;-66
2022/10/22 04:19:44;;;;;;;18.03;16.30;;;12.10;99.90;;;;;;6324029;28;20479;-66
2022/10/22 04:22:47;;;;;;;18.73;16.50;;;12.10;99.90;;;;;;6328459;28;20533;-66
2022/10/22 04:25:50;;;;;;;19.67;17.77;;;12.10;99.90;;;;;;6327985;28;20521;-66
2022/10/22 04:28:53;;;;;;;19.13;17.37;;;12.00;99.90;;;;;;6327498;28;20516;-65
2022/10/22 04:31:57;;;;;;;21.10;16.17;;;12.00;99.90;;;;;;6327400;28;20522;-66
2022/10/22 04:35:01;;;;;;;21.60;17.87;;;12.00;99.90;;;;;;6325498;28;20963;-66
2022/10/22 04:38:04;;;;;;;18.43;16.47;;;12.00;99.90;;;;;;6327600;28;21012;-66
2022/10/22 04:41:12;;;;;;;20.00;14.73;;;12.00;99.90;;;;;;6328304;28;20476;-66
2022/10/22 04:44:15;;;;;;;17.73;15.90;;;12.00;99.90;;;;;;6328029;28;20476;-66
2022/10/22 04:47:19;;;;;;;17.37;15.57;;;12.00;99.90;;;;;;6327934;28;20836;-66
2022/10/22 04:50:24;;;;;;;18.87;17.07;;;12.00;99.90;;;;;;6327431;28;20484;-66
2022/10/22 04:53:27;;;;;;;17.33;15.40;;;12.00;99.90;;;;;;6327454;28;20487;-66
2022/10/22 04:56:32;;;;;;;16.80;14.97;;;12.00;99.90;;;;;;6327348;28;20480;-66
2022/10/22 04:59:35;;;;;;;17.63;15.77;;;12.00;99.90;;;;;;6327435;28;20476;-66
2022/10/22 05:02:38;;;;;;;22.07;17.13;;;12.00;99.90;;;;;;6327440;28;20456;-66
2022/10/22 05:05:42;;;;;;;19.40;17.30;;;12.00;99.90;;;;;;6328085;28;20448;-66
2022/10/22 05:08:46;;;;;;;19.70;16.57;;;11.90;99.90;;;;;;6327312;28;20456;-66
2022/10/22 05:11:52;;;;;;;17.83;15.60;;;11.90;99.90;;;;;;6327241;28;20445;-66
2022/10/22 05:14:55;;;;;;;18.17;16.03;;;11.90;99.90;;;;;;6327401;28;20872;-66
2022/10/22 05:17:59;;;;;;;21.07;14.97;;;11.90;99.90;;;;;;6327499;28;20468;-66
2022/10/22 05:21:04;;;;;;;18.73;16.73;;;11.90;99.90;;;;;;6328334;28;20461;-66
2022/10/22 05:24:07;;;;;;;17.47;15.80;;;11.80;99.90;;;;;;6329658;28;20485;-66
2022/10/22 05:27:10;;;;;;;26.03;19.17;;;11.90;99.90;;;;;;6332709;28;20975;-66
2022/10/22 05:30:14;;;;;;;18.70;15.13;;;11.90;99.90;;;;;;6331159;28;20936;-66
2022/10/22 05:33:17;;;;;;;18.17;16.07;;;12.00;99.90;;;;;;6327259;28;20464;-66
2022/10/22 05:36:27;;;;;;;27.03;24.13;;;12.00;99.90;;;;;;6327102;28;20468;-67
2022/10/22 05:39:30;;;;;;;36.70;33.17;;;12.00;99.90;;;;;;6326683;28;20521;-66
2022/10/22 05:42:34;;;;;;;24.20;21.80;;;12.00;99.90;;;;;;6327105;28;20480;-66
2022/10/22 05:45:37;;;;;;;21.90;19.60;;;12.10;99.90;;;;;;6326538;28;20468;-66
2022/10/22 05:48:41;;;;;;;18.60;16.80;;;12.10;99.90;;;;;;6326262;28;20481;-66
2022/10/22 05:51:45;;;;;;;22.53;16.00;;;12.10;99.90;;;;;;6338531;28;20461;-65
2022/10/22 05:54:49;;;;;;;18.50;16.50;;;12.20;99.90;;;;;;6342381;28;20480;-65
2022/10/22 05:57:52;;;;;;;19.40;17.30;;;12.20;99.90;;;;;;6326233;28;20501;-65
2022/10/22 06:00:55;;;;;;;19.13;15.37;;;12.20;99.90;;;;;;6326089;28;20480;-66
2022/10/22 06:04:00;;;;;;;17.87;15.90;;;12.20;99.90;;;;;;6325850;28;20479;-66
2022/10/22 06:07:05;;;;;;;26.00;23.30;;;12.20;99.90;;;;;;6326211;28;20476;-66
2022/10/22 06:10:14;;;;;;;27.00;24.20;;;12.30;99.90;;;;;;6334686;28;20548;-67
2022/10/22 06:13:17;;;;;;;26.73;23.47;;;12.30;99.90;;;;;;6325829;28;20589;-66
2022/10/22 06:16:20;;;;;;;18.23;16.10;;;12.40;99.90;;;;;;6325544;28;20472;-66
2022/10/22 06:19:24;;;;;;;17.93;16.00;;;12.40;99.90;;;;;;6325887;28;20468;-67
2022/10/22 06:22:29;;;;;;;26.73;20.67;;;12.50;99.90;;;;;;6325926;28;20472;-66
2022/10/22 06:25:32;;;;;;;28.40;23.67;;;12.50;99.90;;;;;;6325559;28;20473;-66
2022/10/22 06:28:35;;;;;;;32.90;25.23;;;12.50;99.90;;;;;;6325321;28;20472;-65
2022/10/22 06:31:39;;;;;;;26.37;21.60;;;12.60;99.90;;;;;;6325195;28;20475;-66
2022/10/22 06:34:42;;;;;;;33.80;19.57;;;12.70;99.90;;;;;;6325770;28;20473;-66
2022/10/22 06:37:47;;;;;;;24.60;20.40;;;12.80;99.90;;;;;;6324922;28;20473;-65
2022/10/22 06:40:50;;;;;;;22.90;17.93;;;12.90;99.90;;;;;;6325501;28;20464;-66
2022/10/22 06:43:54;;;;;;;22.80;18.37;;;13.00;99.90;;;;;;6325183;28;20954;-66
2022/10/22 06:46:57;;;;;;;17.13;15.43;;;13.10;99.90;;;;;;6324994;28;20469;-65
2022/10/22 06:50:00;;;;;;;20.40;15.57;;;13.10;99.90;;;;;;6323024;28;20491;-66
2022/10/22 06:53:05;;;;;;;19.73;14.77;;;13.10;99.90;;;;;;6323650;28;20468;-66
2022/10/22 06:56:10;;;;;;;17.37;15.67;;;13.10;99.90;;;;;;6322947;28;20484;-66
2022/10/22 06:59:13;;;;;;;23.03;16.37;;;13.30;99.90;;;;;;6325004;28;20530;-66
2022/10/22 07:02:17;;;;;;;15.73;13.83;;;13.40;99.90;;;;;;6324500;28;20468;-65
2022/10/22 07:05:20;;;;;;;17.10;14.70;;;13.50;99.90;;;;;;6323140;28;20476;-65
2022/10/22 07:08:25;;;;;;;17.97;14.47;;;13.70;99.90;;;;;;6323622;28;20476;-65
2022/10/22 07:11:30;;;;;;;16.40;14.20;;;13.70;99.90;;;;;;6324108;28;20509;-65
2022/10/22 07:14:34;;;;;;;23.60;18.63;;;13.80;99.90;;;;;;6324876;28;20464;-65
2022/10/22 07:17:37;;;;;;;18.80;16.50;;;13.90;99.90;;;;;;6324538;28;20888;-64
2022/10/22 07:20:46;;;;;;;17.13;15.23;;;13.90;99.90;;;;;;6325118;28;20444;-65
2022/10/22 07:23:51;;;;;;;17.37;15.47;;;14.00;99.90;;;;;;6323899;28;20452;-66
2022/10/22 07:26:54;;;;;;;19.33;14.80;;;14.00;99.90;;;;;;6324994;28;20526;-65
2022/10/22 07:29:59;;;;;;;16.90;15.20;;;14.00;99.90;;;;;;6324651;28;20460;-65
2022/10/22 07:33:03;;;;;;;16.00;13.10;;;14.00;99.90;;;;;;6325286;28;20476;-65
2022/10/22 07:36:08;;;;;;;15.43;13.90;;;14.00;99.90;;;;;;6324227;28;20534;-65
2022/10/22 07:39:12;;;;;;;16.27;14.47;;;14.10;99.90;;;;;;6325261;28;20533;-66
2022/10/22 07:42:16;;;;;;;16.53;14.70;;;14.10;99.90;;;;;;6325592;28;20468;-66
2022/10/22 07:45:19;;;;;;;17.70;15.90;;;14.20;99.90;;;;;;6325141;28;20483;-66
2022/10/22 07:48:23;;;;;;;16.57;14.90;;;14.20;99.90;;;;;;6326185;28;20475;-65
2022/10/22 07:51:26;;;;;;;17.20;15.50;;;14.40;99.90;;;;;;6331640;28;20858;-66
2022/10/22 07:54:30;;;;;;;15.80;13.83;;;14.40;99.90;;;;;;6331583;28;20468;-66
2022/10/22 07:57:33;;;;;;;13.70;11.57;;;14.30;99.90;;;;;;6330093;28;20479;-65
2022/10/22 08:00:37;;;;;;;14.20;12.20;;;14.30;99.90;;;;;;6330287;28;20529;-66
2022/10/22 08:03:40;;;;;;;12.90;11.60;;;14.30;99.90;;;;;;6352237;28;20555;-65
2022/10/22 08:06:43;;;;;;;11.73;10.13;;;14.30;99.90;;;;;;6343598;28;20844;-66
2022/10/22 08:09:51;;;;;;;13.13;10.80;;;14.30;99.90;;;;;;6328698;28;20955;-66
2022/10/22 08:12:54;;;;;;;11.80;10.67;;;14.30;99.90;;;;;;6328444;28;20935;-66
2022/10/22 08:15:58;;;;;;;13.73;11.13;;;14.20;99.90;;;;;;6328652;28;20475;-66
2022/10/22 08:19:01;;;;;;;12.87;10.43;;;14.20;99.90;;;;;;6331320;27;20473;-66
2022/10/22 08:22:05;;;;;;;16.37;10.90;;;14.10;99.90;;;;;;6314911;28;20814;-66
2022/10/22 08:25:10;;;;;;;13.60;9.37;;;14.10;99.90;;;;;;6320207;28;20491;-66
2022/10/22 08:28:14;;;;;;;13.37;9.83;;;14.20;99.90;;;;;;6329829;28;20837;-66
2022/10/22 08:31:23;;;;;;;15.37;10.77;;;14.30;99.90;;;;;;6318541;28;20480;-66
2022/10/22 08:34:27;;;;;;;14.40;9.90;;;14.30;99.90;;;;;;6326894;28;20963;-65
2022/10/22 08:37:30;;;;;;;13.50;10.97;;;14.40;99.90;;;;;;6332574;28;21012;-65
2022/10/22 08:40:38;;;;;;;13.90;10.70;;;14.50;99.90;;;;;;6310772;28;21002;-66
2022/10/22 08:44:02;;;;;;;14.00;10.87;;;14.70;99.90;;;;;;6303947;28;20480;-66
2022/10/22 08:47:21;;;;;;;12.67;10.43;;;14.80;99.90;;;;;;6348151;28;20829;-65
2022/10/22 08:50:30;;;;;;;11.27;9.80;;;14.80;99.90;;;;;;6311188;28;20465;-65
2022/10/22 08:53:41;;;;;;;10.90;9.70;;;14.80;99.90;;;;;;6305380;28;20488;-65
2022/10/22 08:57:00;;;;;;;11.00;9.90;;;14.90;99.90;;;;;;6301276;28;20449;-65
2022/10/22 09:00:07;;;;;;;13.00;10.90;;;14.90;99.90;;;;;;6300315;28;20963;-65
2022/10/22 09:03:31;;;;;;;11.67;10.50;;;15.00;99.90;;;;;;6302887;28;20472;-64
2022/10/22 09:06:36;;;;;;;12.00;10.00;;;15.10;99.90;;;;;;6299958;28;20465;-65
2022/10/22 09:09:45;;;;;;;11.63;9.97;;;15.20;99.90;;;;;;6315849;28;20463;-65
2022/10/22 09:12:50;;;;;;;12.97;11.70;;;15.20;99.90;;;;;;6324257;28;20480;-66
2022/10/22 09:15:57;;;;;;;11.37;9.77;;;15.30;99.90;;;;;;6299893;28;20485;-66
2022/10/22 09:19:23;;;;;;;12.83;11.30;;;15.40;99.90;;;;;;6300828;28;20473;-65
2022/10/22 09:22:38;;;;;;;13.20;11.90;;;15.50;99.90;;;;;;6303019;28;20473;-65
2022/10/22 09:25:43;;;;;;;14.23;10.70;;;15.60;99.90;;;;;;6298442;28;20492;-67
2022/10/22 09:28:51;;;;;;;17.90;11.30;;;15.70;99.90;;;;;;6284838;28;20508;-66
2022/10/22 09:31:54;;;;;;;15.57;12.07;;;15.80;99.90;;;;;;6298580;28;20791;-65
2022/10/22 09:34:58;;;;;;;11.30;10.20;;;15.80;99.90;;;;;;6289456;28;20962;-63
2022/10/22 09:38:08;;;;;;;13.73;12.13;;;15.90;99.90;;;;;;6276469;28;20486;-63
2022/10/22 09:41:12;;;;;;;11.93;10.87;;;15.90;99.90;;;;;;6276144;28;20474;-64
2022/10/22 09:44:18;;;;;;;12.90;11.60;;;16.00;99.90;;;;;;6294148;28;20476;-63
2022/10/22 09:47:33;;;;;;;11.97;10.67;;;16.00;99.90;;;;;;6323558;28;20464;-63
2022/10/22 09:50:47;;;;;;;13.30;10.60;;;16.10;99.90;;;;;;6326161;28;20463;-64
2022/10/22 09:53:58;;;;;;;13.37;10.40;;;16.20;99.90;;;;;;6325690;28;20437;-63
2022/10/22 09:57:05;;;;;;;12.67;11.27;;;16.30;99.90;;;;;;6326221;28;20512;-64
2022/10/22 10:00:12;;;;;;;13.10;11.80;;;16.40;99.90;;;;;;6321279;28;20468;-65
2022/10/22 10:03:21;;;;;;;15.10;11.10;;;16.40;99.90;;;;;;6321134;28;20491;-64
2022/10/22 10:06:24;;;;;;;12.83;11.20;;;16.40;99.90;;;;;;6300880;28;20465;-64
2022/10/22 10:09:29;;;;;;;15.63;11.43;;;16.30;99.90;;;;;;6300849;28;20478;-64
2022/10/22 10:12:43;;;;;;;13.10;11.73;;;16.30;99.90;;;;;;6299804;28;20465;-65
2022/10/22 10:15:58;;;;;;;23.37;19.10;;;16.30;99.90;;;;;;6300102;28;20862;-63
2022/10/22 10:19:14;;;;;;;20.77;15.63;;;16.30;99.90;;;;;;6299901;28;20477;-64
2022/10/22 10:22:30;;;;;;;15.10;13.50;;;16.20;99.90;;;;;;6297706;28;20470;-64
2022/10/22 10:25:45;;;;;;;14.73;12.77;;;16.30;99.90;;;;;;6298961;28;20581;-63
2022/10/22 10:29:00;;;;;;;13.43;11.53;;;16.30;99.90;;;;;;6278411;28;20475;-65
2022/10/22 10:32:19;;;;;;;14.47;12.80;;;16.30;99.90;;;;;;6273911;28;20497;-64
2022/10/22 10:35:30;;;;;;;13.70;11.70;;;16.30;99.90;;;;;;6291862;28;21252;-65
2022/10/22 10:38:43;;;;;;;13.33;11.20;;;16.40;99.90;;;;;;6298735;28;20481;-63
2022/10/22 10:41:52;;;;;;;23.20;16.20;;;16.40;99.90;;;;;;6298452;28;20454;-63
2022/10/22 10:45:05;;;;;;;20.43;14.20;;;16.40;99.90;;;;;;6299150;28;20459;-64
2022/10/22 10:48:36;;;;;;;15.57;12.70;;;16.50;99.90;;;;;;6299812;28;20488;-64
2022/10/22 10:51:50;;;;;;;14.20;12.80;;;16.50;99.90;;;;;;6299773;28;20485;-64
2022/10/22 10:55:01;;;;;;;15.50;13.90;;;16.50;99.90;;;;;;6298295;28;20493;-65
2022/10/22 10:58:17;;;;;;;14.73;13.13;;;16.60;99.90;;;;;;6298247;28;20983;-64
2022/10/22 11:01:24;;;;;;;14.97;13.50;;;16.60;99.90;;;;;;6298295;28;20469;-64
2022/10/22 11:05:08;;;;;;;13.07;11.87;;;16.60;99.90;;;;;;6298251;28;20476;-65
2022/10/22 11:08:15;;;;;;;13.07;11.63;;;16.70;99.90;;;;;;6293547;28;20488;-64
2022/10/22 11:11:23;;;;;;;14.10;12.33;;;16.70;99.90;;;;;;6298387;28;20554;-63
2022/10/22 11:14:35;;;;;;;18.20;13.93;;;16.60;99.90;;;;;;6298076;28;20957;-64
2022/10/22 11:17:42;;;;;;;16.97;15.17;;;16.70;99.90;;;;;;6297126;28;20466;-64
2022/10/22 11:20:55;;;;;;;19.57;17.20;;;16.80;99.90;;;;;;6321250;28;20421;-64
2022/10/22 11:24:09;;;;;;;22.47;14.73;;;16.90;99.90;;;;;;6297179;28;20473;-65
2022/10/22 11:27:24;;;;;;;13.37;12.07;;;17.10;99.90;;;;;;6303337;28;20470;-65
2022/10/22 11:30:32;;;;;;;14.43;12.87;;;17.20;99.90;;;;;;6297791;28;20481;-64
2022/10/22 11:33:42;;;;;;;13.80;11.57;;;17.40;99.90;;;;;;6297956;28;20468;-63
2022/10/22 11:36:48;;;;;;;15.63;14.13;;;17.60;99.90;;;;;;6297538;28;20469;-64
2022/10/22 11:39:54;;;;;;;14.23;12.80;;;17.60;99.90;;;;;;6297665;28;20484;-63
2022/10/22 11:42:58;;;;;;;17.07;13.90;;;17.70;99.90;;;;;;6297324;28;20964;-64
2022/10/22 11:46:25;;;;;;;13.50;12.10;;;17.70;99.90;;;;;;6297641;28;20559;-63
2022/10/22 11:49:42;;;;;;;14.77;13.17;;;17.70;99.90;;;;;;6297546;28;21224;-65
2022/10/22 11:52:54;;;;;;;15.27;13.33;;;17.70;99.90;;;;;;6298101;28;20477;-64
2022/10/22 11:56:03;;;;;;;17.43;13.23;;;17.60;99.90;;;;;;6297510;28;20481;-64
2022/10/22 11:59:35;;;;;;;16.50;14.77;;;17.50;99.90;;;;;;6297108;28;20474;-63
2022/10/22 12:02:43;;;;;;;19.60;14.80;;;17.30;99.90;;;;;;6297571;28;20445;-64
2022/10/22 12:05:47;;;;;;;20.30;16.63;;;17.30;99.90;;;;;;6295774;28;20460;-63
2022/10/22 12:09:06;;;;;;;17.23;15.40;;;17.30;99.90;;;;;;6297997;28;20465;-63
2022/10/22 12:12:15;;;;;;;19.90;17.80;;;17.30;99.90;;;;;;6298317;28;20473;-62
2022/10/22 12:15:25;;;;;;;20.90;16.40;;;17.30;99.90;;;;;;6298925;28;20465;-63
2022/10/22 12:18:35;;;;;;;22.30;17.60;;;17.30;99.90;;;;;;6298670;28;20415;-64
2022/10/22 12:21:39;;;;;;;22.93;17.77;;;17.30;99.90;;;;;;6298903;28;20474;-65
2022/10/22 12:24:48;;;;;;;21.20;18.90;;;17.30;99.90;;;;;;6295743;28;20469;-66
2022/10/22 12:27:53;;;;;;;19.83;17.80;;;17.20;99.90;;;;;;6290060;28;20886;-64
2022/10/22 12:30:59;;;;;;;23.80;19.73;;;17.10;99.90;;;;;;6272156;28;21004;-63
2022/10/22 12:34:03;;;;;;;25.33;20.90;;;17.00;99.90;;;;;;6287165;28;20481;-64
2022/10/22 12:37:07;;;;;;;22.33;19.93;;;16.90;99.90;;;;;;6301413;28;20483;-64
2022/10/22 12:40:19;;;;;;;21.60;19.37;;;16.80;99.90;;;;;;6300854;28;20481;-64
2022/10/22 12:43:26;;;;;;;23.43;20.77;;;16.70;99.90;;;;;;6299277;28;20461;-63
2022/10/22 12:46:32;;;;;;;23.60;20.60;;;16.80;99.90;;;;;;6298481;28;20476;-64
2022/10/22 12:49:38;;;;;;;22.73;20.47;;;16.70;99.90;;;;;;6301302;28;20488;-63
2022/10/22 12:52:41;;;;;;;24.27;21.90;;;16.80;99.90;;;;;;6301418;28;20473;-63
2022/10/22 12:55:49;;;;;;;24.27;20.87;;;16.80;99.90;;;;;;6301080;28;20480;-64
2022/10/22 12:58:56;;;;;;;24.03;21.50;;;16.80;99.90;;;;;;6301068;28;20539;-63
2022/10/22 13:01:59;;;;;;;23.97;21.30;;;16.80;99.90;;;;;;6300994;28;20904;-63
2022/10/22 13:05:21;;;;;;;22.20;20.10;;;16.80;99.90;;;;;;6301396;28;20973;-64
2022/10/22 13:08:28;;;;;;;31.83;22.77;;;16.80;99.90;;;;;;6300646;28;20508;-64
2022/10/22 13:11:37;;;;;;;22.23;20.00;;;16.80;99.90;;;;;;6300974;28;20470;-63
2022/10/22 13:14:40;;;;;;;24.77;19.87;;;16.80;99.90;;;;;;6301565;28;20473;-63
2022/10/22 13:17:44;;;;;;;22.73;20.13;;;16.80;99.90;;;;;;6326046;28;20469;-63
2022/10/22 13:20:57;;;;;;;25.10;22.43;;;16.80;99.90;;;;;;6326246;28;20456;-62
2022/10/22 13:24:04;;;;;;;26.23;21.47;;;16.80;99.90;;;;;;6326654;28;20530;-63
2022/10/22 13:27:10;;;;;;;22.70;20.50;;;16.80;99.90;;;;;;6334875;28;20481;-63
2022/10/22 13:30:20;;;;;;;24.30;21.70;;;16.70;99.90;;;;;;6314851;28;20457;-63
2022/10/22 13:33:26;;;;;;;23.47;19.90;;;16.70;99.90;;;;;;6308507;28;20488;-62
2022/10/22 13:36:31;;;;;;;20.77;18.43;;;16.60;99.90;;;;;;6303445;28;20465;-63
2022/10/22 13:39:35;;;;;;;20.03;17.97;;;16.50;99.90;;;;;;6309610;28;20753;-63
2022/10/22 13:42:41;;;;;;;23.43;17.67;;;16.50;99.90;;;;;;6330040;28;20464;-63
2022/10/22 13:45:48;;;;;;;21.80;18.83;;;16.50;99.90;;;;;;6323186;28;20477;-63
2022/10/22 13:48:55;;;;;;;20.53;18.40;;;16.40;99.90;;;;;;6302620;28;20964;-63
2022/10/22 13:51:59;;;;;;;21.03;18.97;;;16.50;99.90;;;;;;6300127;28;20466;-63
2022/10/22 13:55:12;;;;;;;22.70;20.47;;;16.40;99.90;;;;;;6299844;28;20469;-65
2022/10/22 13:58:18;;;;;;;21.80;18.60;;;16.40;99.90;;;;;;6299742;28;20488;-65
2022/10/22 14:01:24;;;;;;;21.73;18.57;;;16.40;99.90;;;;;;6299830;28;20568;-66
2022/10/22 14:04:27;;;;;;;20.87;17.87;;;16.40;99.90;;;;;;6301670;28;20476;-65
2022/10/22 14:07:31;;;;;;;20.23;17.57;;;16.40;99.90;;;;;;6323987;28;20468;-64
2022/10/22 14:10:34;;;;;;;20.20;17.97;;;16.30;99.90;;;;;;6312260;28;20491;-63
2022/10/22 14:13:39;;;;;;;20.87;18.77;;;16.30;99.90;;;;;;6302879;28;20976;-64
2022/10/22 14:16:42;;;;;;;24.50;20.30;;;16.30;99.90;;;;;;6318453;28;20473;-66
2022/10/22 14:19:48;;;;;;;21.93;19.63;;;16.30;99.90;;;;;;6307372;28;20554;-65
2022/10/22 14:22:52;;;;;;;22.33;20.07;;;16.30;99.90;;;;;;6299348;28;20470;-65
2022/10/22 14:25:56;;;;;;;23.23;19.60;;;16.20;99.90;;;;;;6301933;28;20499;-63
2022/10/22 14:29:02;;;;;;;26.60;20.60;;;16.30;99.90;;;;;;6307638;28;20473;-65
2022/10/22 14:32:15;;;;;;;22.90;20.57;;;16.20;99.90;;;;;;6291063;28;20551;-63
2022/10/22 14:35:22;;;;;;;25.23;20.80;;;16.20;99.90;;;;;;6290925;28;20485;-63
2022/10/22 14:38:25;;;;;;;29.17;25.83;;;16.20;99.90;;;;;;6298579;28;20484;-63
2022/10/22 14:41:29;;;;;;;34.53;30.53;;;16.20;99.90;;;;;;6298600;28;20484;-63
2022/10/22 14:44:34;;;;;;;26.67;23.90;;;16.20;99.90;;;;;;6298107;28;20473;-61
2022/10/22 14:47:37;;;;;;;29.03;25.87;;;16.10;99.90;;;;;;6323318;28;20463;-62
2022/10/22 14:50:41;;;;;;;32.17;27.23;;;16.10;99.90;;;;;;6323686;28;20451;-62
2022/10/22 14:53:45;;;;;;;32.03;28.73;;;16.10;99.90;;;;;;6321252;28;20966;-62
2022/10/22 14:56:48;;;;;;;33.43;27.20;;;16.10;99.90;;;;;;6297282;28;20449;-62
2022/10/22 14:59:53;;;;;;;31.87;23.60;;;16.00;99.90;;;;;;6296785;28;20458;-62
2022/10/22 15:02:58;;;;;;;34.43;29.47;;;16.00;99.90;;;;;;6295419;28;20430;-62
2022/10/22 15:06:07;;;;;;;30.10;27.00;;;16.00;99.90;;;;;;6298202;28;20465;-62
2022/10/22 15:09:10;;;;;;;31.97;27.83;;;16.00;99.90;;;;;;6298303;28;20484;-62
2022/10/22 15:12:14;;;;;;;34.90;31.17;;;16.00;99.90;;;;;;6289971;28;20462;-62
2022/10/22 15:15:19;;;;;;;37.50;33.60;;;15.90;99.90;;;;;;6297672;28;20485;-63
2022/10/22 15:18:26;;;;;;;44.20;39.60;;;15.90;99.90;;;;;;6278355;28;20545;-63
2022/10/22 15:21:29;;;;;;;40.43;36.30;;;15.90;99.90;;;;;;6283488;28;20481;-63
2022/10/22 15:24:33;;;;;;;32.73;29.33;;;15.80;99.90;;;;;;6273117;28;20470;-62
2022/10/22 15:27:36;;;;;;;34.90;28.13;;;15.80;99.90;;;;;;6297386;28;20543;-63
2022/10/22 15:30:41;;;;;;;30.97;27.80;;;15.80;99.90;;;;;;6322951;28;20545;-63
2022/10/22 15:33:44;;;;;;;32.83;29.33;;;15.70;99.90;;;;;;6323108;28;20472;-63
2022/10/22 15:36:47;;;;;;;32.40;29.23;;;15.70;99.90;;;;;;6322512;28;20483;-62
2022/10/22 15:39:50;;;;;;;33.43;29.73;;;15.60;99.90;;;;;;6321759;28;20468;-63
2022/10/22 15:42:54;;;;;;;34.17;30.77;;;15.60;99.90;;;;;;6322960;28;20464;-63
2022/10/22 15:46:10;;;;;;;30.90;27.60;;;15.60;99.90;;;;;;6323263;28;20468;-63
2022/10/22 15:49:13;;;;;;;31.30;28.03;;;15.60;99.90;;;;;;6322543;28;21066;-63